Time;durP1;ratioP1;P1;durP2;ratioP2;P2;SDS_P1;SDS_P2;PMS_P1;PMS_P2;Temp;Humidity;BMP_temperature;BMP_pressure;BME280_temperature;BME280_humidity;BME280_pressure;Samples;Min_cycle;Max_cycle;Signal;HPM_P1;HPM_P2
2021/09/23 00:02:14;;;;;;;15.38;4.28;;;;;;;;;;5054406;28;20024;-74
2021/09/23 00:04:40;;;;;;;10.35;4.40;;;;;;;;;;5054282;28;20029;-75
2021/09/23 00:07:05;;;;;;;9.73;3.83;;;;;;;;;;5053921;28;20032;-75
2021/09/23 00:09:31;;;;;;;12.63;4.45;;;;;;;;;;5054154;28;20052;-75
2021/09/23 00:11:56;;;;;;;15.70;4.70;;;;;;;;;;5054030;28;20430;-75
2021/09/23 00:14:22;;;;;;;11.32;4.35;;;;;;;;;;5053791;28;20039;-74
2021/09/23 00:16:47;;;;;;;13.48;4.97;;;;;;;;;;5054063;28;20139;-74
2021/09/23 00:19:12;;;;;;;11.40;4.32;;;;;;;;;;5053697;28;20013;-75
2021/09/23 00:21:37;;;;;;;9.70;4.10;;;;;;;;;;5053980;28;20141;-74
2021/09/23 00:24:03;;;;;;;14.52;4.35;;;;;;;;;;5053994;28;20024;-74
2021/09/23 00:26:28;;;;;;;17.63;4.78;;;;;;;;;;5053854;28;20024;-74
2021/09/23 00:28:53;;;;;;;13.88;5.25;;;;;;;;;;5053892;28;20052;-74
2021/09/23 00:31:19;;;;;;;17.67;5.10;;;;;;;;;;5053586;28;20453;-74
2021/09/23 00:33:44;;;;;;;15.85;5.03;;;;;;;;;;5052936;28;20479;-74
2021/09/23 00:36:09;;;;;;;12.80;4.28;;;;;;;;;;5053737;28;20079;-74
2021/09/23 00:38:35;;;;;;;22.35;5.95;;;;;;;;;;5053555;28;20382;-74
2021/09/23 00:41:00;;;;;;;13.00;4.28;;;;;;;;;;5053648;28;20047;-74
2021/09/23 00:43:26;;;;;;;10.43;3.67;;;;;;;;;;5053525;28;20080;-75
2021/09/23 00:45:51;;;;;;;11.80;3.95;;;;;;;;;;5053563;28;20040;-75
2021/09/23 00:48:16;;;;;;;12.55;4.15;;;;;;;;;;5053555;28;20017;-74
2021/09/23 00:50:43;;;;;;;13.43;4.10;;;;;;;;;;5053372;28;20029;-75
2021/09/23 00:53:09;;;;;;;14.48;4.07;;;;;;;;;;5053223;28;20492;-74
2021/09/23 00:55:34;;;;;;;10.27;3.95;;;;;;;;;;5053417;28;20021;-75
2021/09/23 00:57:59;;;;;;;12.43;4.30;;;;;;;;;;5053395;28;20029;-74
2021/09/23 01:00:25;;;;;;;13.05;4.10;;;;;;;;;;5053084;28;20028;-74
2021/09/23 01:02:50;;;;;;;12.68;4.05;;;;;;;;;;5053194;28;20086;-74
2021/09/23 01:05:16;;;;;;;16.95;4.38;;;;;;;;;;5053409;28;20031;-74
2021/09/23 01:07:48;;;;;;;15.75;4.45;;;;;;;;;;5053262;28;20041;-74
2021/09/23 01:10:15;;;;;;;9.63;3.72;;;;;;;;;;5053347;28;20139;-74
2021/09/23 01:12:40;;;;;;;19.58;5.43;;;;;;;;;;5053189;28;20037;-74
2021/09/23 01:15:06;;;;;;;10.55;3.67;;;;;;;;;;5053269;28;20455;-74
2021/09/23 01:17:32;;;;;;;12.43;4.57;;;;;;;;;;5053117;28;20104;-74
2021/09/23 01:19:58;;;;;;;13.50;4.05;;;;;;;;;;5053324;28;20151;-74
2021/09/23 01:22:23;;;;;;;16.13;4.50;;;;;;;;;;5053152;28;20068;-74
2021/09/23 01:24:48;;;;;;;14.68;3.90;;;;;;;;;;5052752;28;20104;-74
2021/09/23 01:27:14;;;;;;;15.88;4.68;;;;;;;;;;5052884;28;20461;-74
2021/09/23 01:29:39;;;;;;;12.25;4.50;;;;;;;;;;5053558;28;20025;-74
2021/09/23 01:32:05;;;;;;;18.15;4.80;;;;;;;;;;5056818;28;20454;-74
2021/09/23 01:34:32;;;;;;;16.80;5.03;;;;;;;;;;5057117;28;20104;-74
2021/09/23 01:36:57;;;;;;;9.27;4.03;;;;;;;;;;5056970;28;20029;-74
2021/09/23 01:39:23;;;;;;;13.18;4.15;;;;;;;;;;5057005;28;20021;-74
2021/09/23 01:41:49;;;;;;;15.02;3.80;;;;;;;;;;5056872;28;20065;-74
2021/09/23 01:44:14;;;;;;;9.68;3.88;;;;;;;;;;5057044;28;20445;-75
2021/09/23 01:46:39;;;;;;;12.13;4.80;;;;;;;;;;5056891;28;20021;-74
2021/09/23 01:49:05;;;;;;;21.20;4.88;;;;;;;;;;5057132;28;20036;-74
2021/09/23 01:51:30;;;;;;;9.68;4.13;;;;;;;;;;5056718;28;20040;-74
2021/09/23 01:53:56;;;;;;;11.80;4.30;;;;;;;;;;5056366;28;20099;-74
2021/09/23 01:56:21;;;;;;;13.75;4.20;;;;;;;;;;5056922;28;20033;-74
2021/09/23 01:58:46;;;;;;;17.60;4.38;;;;;;;;;;5056509;28;20036;-74
2021/09/23 02:01:12;;;;;;;11.90;3.95;;;;;;;;;;5056546;28;20090;-74
2021/09/23 02:03:37;;;;;;;9.27;3.58;;;;;;;;;;5056567;28;20060;-74
2021/09/23 02:06:02;;;;;;;11.98;3.83;;;;;;;;;;5056533;28;20380;-74
2021/09/23 02:08:28;;;;;;;13.50;4.30;;;;;;;;;;5056431;28;20477;-74
2021/09/23 02:10:53;;;;;;;14.63;4.97;;;;;;;;;;5056735;28;20033;-74
2021/09/23 02:13:18;;;;;;;17.77;4.85;;;;;;;;;;5056317;28;20041;-74
2021/09/23 02:15:43;;;;;;;11.18;4.00;;;;;;;;;;5056502;28;20021;-75
2021/09/23 02:18:09;;;;;;;13.05;3.97;;;;;;;;;;5056637;28;20028;-74
2021/09/23 02:20:34;;;;;;;11.05;4.45;;;;;;;;;;5056224;28;20119;-74
2021/09/23 02:22:59;;;;;;;17.33;5.50;;;;;;;;;;5056278;28;20025;-74
2021/09/23 02:25:25;;;;;;;14.70;4.95;;;;;;;;;;5056155;28;20025;-74
2021/09/23 02:27:50;;;;;;;14.90;5.10;;;;;;;;;;5056178;28;20083;-74
2021/09/23 02:30:15;;;;;;;18.00;5.38;;;;;;;;;;5056085;28;20358;-74
2021/09/23 02:32:41;;;;;;;21.35;8.23;;;;;;;;;;5056011;28;20084;-74
2021/09/23 02:35:06;;;;;;;19.67;5.55;;;;;;;;;;5055654;28;20040;-74
2021/09/23 02:37:32;;;;;;;14.20;4.53;;;;;;;;;;5055854;28;20029;-74
2021/09/23 02:39:57;;;;;;;13.10;4.78;;;;;;;;;;5055957;28;20029;-74
2021/09/23 02:42:22;;;;;;;15.75;4.60;;;;;;;;;;5055741;28;20037;-74
2021/09/23 02:44:48;;;;;;;20.20;4.45;;;;;;;;;;5054521;28;20024;-74
2021/09/23 02:47:13;;;;;;;17.77;4.78;;;;;;;;;;5055783;28;20563;-74
2021/09/23 02:49:38;;;;;;;11.27;4.28;;;;;;;;;;5055682;28;20041;-74
2021/09/23 02:52:04;;;;;;;22.92;5.63;;;;;;;;;;5055314;28;20108;-74
2021/09/23 02:54:29;;;;;;;20.40;5.25;;;;;;;;;;5055549;28;20027;-75
2021/09/23 02:56:54;;;;;;;15.55;5.55;;;;;;;;;;5055526;28;20167;-74
2021/09/23 02:59:20;;;;;;;14.93;4.95;;;;;;;;;;5055307;28;20366;-74
2021/09/23 03:01:45;;;;;;;17.95;5.43;;;;;;;;;;5055401;28;20033;-75
2021/09/23 03:04:10;;;;;;;13.50;4.97;;;;;;;;;;5055542;28;20479;-74
2021/09/23 03:06:35;;;;;;;16.50;5.43;;;;;;;;;;5055341;28;20021;-74
2021/09/23 03:09:01;;;;;;;13.27;4.43;;;;;;;;;;5055666;28;20083;-74
2021/09/23 03:11:26;;;;;;;15.32;5.47;;;;;;;;;;5055202;28;20462;-75
2021/09/23 03:13:51;;;;;;;19.70;5.38;;;;;;;;;;5055300;28;20484;-74
2021/09/23 03:16:17;;;;;;;14.63;4.82;;;;;;;;;;5054976;28;20107;-75
2021/09/23 03:18:42;;;;;;;18.17;5.07;;;;;;;;;;5054848;28;20029;-74
2021/09/23 03:21:07;;;;;;;25.48;5.25;;;;;;;;;;5055355;28;20024;-74
2021/09/23 03:23:33;;;;;;;13.70;4.55;;;;;;;;;;5054753;28;20032;-74
2021/09/23 03:25:58;;;;;;;15.15;4.05;;;;;;;;;;5055323;28;20040;-74
2021/09/23 03:28:24;;;;;;;11.18;4.30;;;;;;;;;;5055137;28;20032;-74
2021/09/23 03:30:49;;;;;;;16.50;4.50;;;;;;;;;;5054808;28;20079;-74
2021/09/23 03:33:14;;;;;;;14.48;5.03;;;;;;;;;;5055232;28;20496;-74
2021/09/23 03:35:40;;;;;;;16.13;5.13;;;;;;;;;;5054813;28;20021;-74
2021/09/23 03:38:05;;;;;;;18.38;6.38;;;;;;;;;;5054726;28;20113;-74
2021/09/23 03:40:31;;;;;;;21.63;5.32;;;;;;;;;;5054767;28;20079;-74
2021/09/23 03:42:56;;;;;;;24.95;5.63;;;;;;;;;;5054389;28;20021;-74
2021/09/23 03:45:25;;;;;;;11.65;4.85;;;;;;;;;;5054785;28;20029;-74
2021/09/23 03:47:50;;;;;;;20.30;5.38;;;;;;;;;;5054640;28;20401;-74
2021/09/23 03:50:16;;;;;;;11.05;4.43;;;;;;;;;;5054651;28;20100;-74
2021/09/23 03:52:42;;;;;;;12.48;4.88;;;;;;;;;;5053858;28;20037;-74
2021/09/23 03:55:07;;;;;;;13.82;4.65;;;;;;;;;;5054574;28;20057;-74
2021/09/23 03:57:32;;;;;;;18.08;5.65;;;;;;;;;;5054310;28;20424;-74
2021/09/23 03:59:58;;;;;;;19.98;5.18;;;;;;;;;;5054493;28;20025;-74
2021/09/23 04:02:23;;;;;;;20.08;5.30;;;;;;;;;;5054327;28;20041;-74
2021/09/23 04:04:49;;;;;;;15.80;5.65;;;;;;;;;;5054325;28;20048;-74
2021/09/23 04:07:14;;;;;;;13.20;5.22;;;;;;;;;;5054261;28;20159;-74
2021/09/23 04:09:39;;;;;;;14.23;4.72;;;;;;;;;;5054456;28;20473;-74
2021/09/23 04:12:05;;;;;;;20.35;5.28;;;;;;;;;;5054096;28;20457;-74
2021/09/23 04:14:30;;;;;;;18.33;5.07;;;;;;;;;;5054076;28;20033;-74
2021/09/23 04:16:56;;;;;;;15.07;5.07;;;;;;;;;;5054097;28;20029;-74
2021/09/23 04:19:21;;;;;;;14.43;5.10;;;;;;;;;;5054306;28;20031;-74
2021/09/23 04:21:46;;;;;;;15.52;5.28;;;;;;;;;;5053990;28;20029;-74
2021/09/23 04:24:12;;;;;;;9.98;4.68;;;;;;;;;;5053948;28;20095;-74
2021/09/23 04:26:37;;;;;;;13.27;5.25;;;;;;;;;;5053322;28;20031;-75
2021/09/23 04:29:02;;;;;;;18.88;5.53;;;;;;;;;;5053958;28;20523;-74
2021/09/23 04:31:28;;;;;;;15.10;5.30;;;;;;;;;;5053639;28;20037;-74
2021/09/23 04:33:53;;;;;;;19.63;5.15;;;;;;;;;;5054162;28;20432;-74
2021/09/23 04:36:18;;;;;;;14.18;4.75;;;;;;;;;;5053671;28;20067;-75
2021/09/23 04:38:43;;;;;;;15.02;5.07;;;;;;;;;;5053766;28;20033;-74
2021/09/23 04:41:11;;;;;;;14.75;4.63;;;;;;;;;;5053645;28;20028;-74
2021/09/23 04:43:37;;;;;;;14.93;4.88;;;;;;;;;;5053558;28;20079;-74
2021/09/23 04:46:02;;;;;;;17.75;5.07;;;;;;;;;;5053562;28;20369;-74
2021/09/23 04:48:27;;;;;;;19.48;5.18;;;;;;;;;;5053534;28;20104;-74
2021/09/23 04:50:52;;;;;;;22.38;5.50;;;;;;;;;;5053066;28;20032;-74
2021/09/23 04:53:18;;;;;;;17.33;4.97;;;;;;;;;;5053552;28;20040;-74
2021/09/23 04:55:43;;;;;;;12.82;4.45;;;;;;;;;;5053378;28;20021;-74
2021/09/23 04:58:08;;;;;;;15.32;5.05;;;;;;;;;;5053114;28;20543;-74
2021/09/23 05:00:34;;;;;;;14.55;5.50;;;;;;;;;;5053364;28;20056;-74
2021/09/23 05:02:59;;;;;;;12.85;4.78;;;;;;;;;;5053393;28;20048;-74
2021/09/23 05:05:24;;;;;;;11.25;4.80;;;;;;;;;;5052480;28;20375;-74
2021/09/23 05:07:49;;;;;;;11.15;4.72;;;;;;;;;;5053291;28;20067;-75
2021/09/23 05:10:15;;;;;;;12.07;4.57;;;;;;;;;;5052980;28;20021;-74
2021/09/23 05:12:40;;;;;;;13.80;4.85;;;;;;;;;;5053183;28;20048;-74
2021/09/23 05:15:06;;;;;;;17.52;5.03;;;;;;;;;;5053335;28;20044;-74
2021/09/23 05:17:31;;;;;;;19.38;5.97;;;;;;;;;;5053144;28;20107;-74
2021/09/23 05:19:57;;;;;;;17.27;5.60;;;;;;;;;;5053225;28;20111;-74
2021/09/23 05:22:27;;;;;;;16.70;5.10;;;;;;;;;;5052953;28;20108;-74
2021/09/23 05:24:52;;;;;;;15.05;5.03;;;;;;;;;;5053160;28;20057;-74
2021/09/23 05:27:17;;;;;;;16.40;5.63;;;;;;;;;;5053238;28;20061;-74
2021/09/23 05:29:43;;;;;;;16.40;5.35;;;;;;;;;;5053299;28;20067;-74
2021/09/23 05:32:08;;;;;;;18.90;5.13;;;;;;;;;;5052877;28;20084;-74
2021/09/23 05:34:34;;;;;;;17.20;5.63;;;;;;;;;;5053045;28;20033;-74
2021/09/23 05:36:59;;;;;;;13.20;5.15;;;;;;;;;;5052904;28;20048;-74
2021/09/23 05:39:25;;;;;;;20.30;5.70;;;;;;;;;;5053010;28;20017;-74
2021/09/23 05:41:50;;;;;;;14.73;5.05;;;;;;;;;;5053063;28;20358;-74
2021/09/23 05:44:16;;;;;;;11.88;5.03;;;;;;;;;;5053043;28;20040;-74
2021/09/23 05:46:42;;;;;;;18.02;6.78;;;;;;;;;;5052844;28;20361;-74
2021/09/23 05:49:07;;;;;;;13.40;5.97;;;;;;;;;;5052874;28;20116;-74
2021/09/23 05:51:32;;;;;;;23.73;6.65;;;;;;;;;;5052456;28;20029;-75
2021/09/23 05:53:57;;;;;;;13.70;5.35;;;;;;;;;;5052952;28;20056;-75
2021/09/23 05:56:23;;;;;;;12.57;5.18;;;;;;;;;;5052551;28;20036;-75
2021/09/23 05:58:48;;;;;;;25.65;6.38;;;;;;;;;;5053103;28;20033;-74
2021/09/23 06:01:14;;;;;;;13.90;5.95;;;;;;;;;;5052542;28;20036;-74
2021/09/23 06:03:40;;;;;;;23.05;7.30;;;;;;;;;;5052686;28;20055;-75
2021/09/23 06:06:05;;;;;;;21.23;8.50;;;;;;;;;;5052779;28;20094;-74
2021/09/23 06:08:30;;;;;;;21.30;7.38;;;;;;;;;;5052621;28;20028;-75
2021/09/23 06:10:55;;;;;;;27.50;9.43;;;;;;;;;;5052572;28;20036;-75
2021/09/23 06:13:20;;;;;;;33.70;11.40;;;;;;;;;;5052554;28;20033;-75
2021/09/23 06:15:47;;;;;;;30.75;10.95;;;;;;;;;;5053236;28;20378;-75
2021/09/23 06:18:12;;;;;;;39.00;13.38;;;;;;;;;;5056330;28;20029;-74
2021/09/23 06:20:38;;;;;;;42.22;14.27;;;;;;;;;;5056222;28;20040;-74
2021/09/23 06:23:04;;;;;;;47.00;14.32;;;;;;;;;;5056230;28;20079;-75
2021/09/23 06:25:29;;;;;;;44.47;14.13;;;;;;;;;;5055847;28;20049;-75
2021/09/23 06:27:54;;;;;;;50.83;16.10;;;;;;;;;;5056086;28;20033;-75
2021/09/23 06:30:19;;;;;;;41.63;13.65;;;;;;;;;;5056197;28;20031;-75
2021/09/23 06:32:45;;;;;;;32.30;12.48;;;;;;;;;;5056022;28;20092;-75
2021/09/23 06:35:10;;;;;;;27.30;10.95;;;;;;;;;;5055961;28;20043;-75
2021/09/23 06:37:36;;;;;;;43.58;13.38;;;;;;;;;;5055790;28;20017;-75
2021/09/23 06:40:01;;;;;;;36.20;11.32;;;;;;;;;;5055941;28;20056;-75
2021/09/23 06:42:27;;;;;;;31.52;10.73;;;;;;;;;;5055875;28;20479;-75
2021/09/23 06:44:52;;;;;;;31.35;9.32;;;;;;;;;;5055803;28;20098;-76
2021/09/23 06:47:17;;;;;;;37.80;9.70;;;;;;;;;;5055751;28;20025;-76
2021/09/23 06:49:43;;;;;;;33.70;10.25;;;;;;;;;;5055673;28;20381;-75
2021/09/23 06:52:08;;;;;;;23.38;8.68;;;;;;;;;;5055654;28;20033;-75
2021/09/23 06:54:33;;;;;;;28.00;9.25;;;;;;;;;;5055620;28;20190;-75
2021/09/23 06:56:59;;;;;;;27.42;8.68;;;;;;;;;;5055596;28;20044;-75
2021/09/23 06:59:24;;;;;;;26.70;8.05;;;;;;;;;;5055397;28;20017;-76
2021/09/23 07:01:49;;;;;;;34.20;10.15;;;;;;;;;;5055592;28;20064;-75
2021/09/23 07:04:15;;;;;;;23.77;7.38;;;;;;;;;;5055146;28;20029;-76
2021/09/23 07:06:40;;;;;;;32.15;8.98;;;;;;;;;;5054830;28;20067;-75
2021/09/23 07:09:07;;;;;;;28.27;8.90;;;;;;;;;;5054954;28;20033;-76
2021/09/23 07:11:33;;;;;;;29.63;9.48;;;;;;;;;;5055058;28;20045;-75
2021/09/23 07:13:58;;;;;;;27.77;9.48;;;;;;;;;;5055266;28;20029;-76
2021/09/23 07:16:23;;;;;;;38.95;10.35;;;;;;;;;;5055130;28;20056;-75
2021/09/23 07:18:49;;;;;;;18.02;7.18;;;;;;;;;;5055248;28;20055;-75
2021/09/23 07:21:14;;;;;;;27.45;8.20;;;;;;;;;;5055131;28;20522;-75
2021/09/23 07:23:39;;;;;;;16.67;6.03;;;;;;;;;;5055069;28;20024;-76
2021/09/23 07:26:04;;;;;;;24.58;5.38;;;;;;;;;;5055131;28;20037;-75
2021/09/23 07:28:30;;;;;;;16.67;4.60;;;;;;;;;;5045562;28;20020;-76
2021/09/23 07:30:56;;;;;;;18.95;4.53;;;;;;;;;;5054563;28;20155;-76
2021/09/23 07:33:21;;;;;;;18.42;5.10;;;;;;;;;;5054967;28;20509;-76
2021/09/23 07:35:46;;;;;;;17.27;6.15;;;;;;;;;;5053982;28;20021;-77
2021/09/23 07:38:12;;;;;;;10.80;3.50;;;;;;;;;;5054363;28;20488;-76
2021/09/23 07:40:37;;;;;;;17.38;4.93;;;;;;;;;;5054741;28;20121;-76
2021/09/23 07:43:03;;;;;;;12.40;3.25;;;;;;;;;;5054394;28;20024;-76
2021/09/23 07:45:28;;;;;;;11.52;2.67;;;;;;;;;;5054439;28;20024;-76
2021/09/23 07:47:54;;;;;;;11.35;2.72;;;;;;;;;;5054703;28;20036;-77
2021/09/23 07:50:19;;;;;;;9.32;3.28;;;;;;;;;;5054539;28;20049;-75
2021/09/23 07:52:45;;;;;;;9.07;2.70;;;;;;;;;;5054207;28;20131;-76
2021/09/23 07:55:10;;;;;;;9.00;2.63;;;;;;;;;;5054292;28;20041;-76
2021/09/23 07:57:35;;;;;;;11.18;2.75;;;;;;;;;;5054393;28;20457;-76
2021/09/23 08:00:03;;;;;;;11.18;2.45;;;;;;;;;;5044104;28;20036;-76
2021/09/23 08:02:28;;;;;;;10.30;2.70;;;;;;;;;;5052292;28;20040;-77
2021/09/23 08:04:53;;;;;;;7.47;2.70;;;;;;;;;;5052058;28;20025;-76
2021/09/23 08:07:19;;;;;;;7.50;2.75;;;;;;;;;;5053806;28;20090;-76
2021/09/23 08:09:46;;;;;;;8.10;2.65;;;;;;;;;;5053551;28;20078;-75
2021/09/23 08:12:11;;;;;;;6.05;2.60;;;;;;;;;;5053951;28;20051;-75
2021/09/23 08:14:36;;;;;;;6.60;2.40;;;;;;;;;;5053723;28;20032;-76
2021/09/23 08:17:02;;;;;;;7.03;2.50;;;;;;;;;;5054139;28;20040;-74
2021/09/23 08:19:27;;;;;;;6.78;2.58;;;;;;;;;;5054039;28;20376;-74
2021/09/23 08:21:53;;;;;;;7.32;2.47;;;;;;;;;;5054072;28;20410;-74
2021/09/23 08:24:20;;;;;;;4.68;2.10;;;;;;;;;;5053834;28;20029;-75
2021/09/23 08:26:46;;;;;;;5.63;1.67;;;;;;;;;;5053950;28;20103;-74
2021/09/23 08:29:11;;;;;;;9.38;2.33;;;;;;;;;;5053564;28;20119;-73
2021/09/23 08:31:36;;;;;;;4.55;1.70;;;;;;;;;;5053401;28;20477;-73
2021/09/23 08:34:01;;;;;;;3.05;1.60;;;;;;;;;;5053487;28;20537;-74
2021/09/23 08:36:27;;;;;;;4.07;1.60;;;;;;;;;;5053494;28;20021;-74
2021/09/23 08:38:52;;;;;;;3.05;1.40;;;;;;;;;;5052346;28;20029;-73
2021/09/23 08:41:18;;;;;;;2.28;1.38;;;;;;;;;;5053378;28;20028;-73
2021/09/23 08:43:43;;;;;;;2.22;1.08;;;;;;;;;;5053610;28;20032;-73
2021/09/23 08:46:08;;;;;;;4.47;1.35;;;;;;;;;;5053412;28;20065;-73
2021/09/23 08:48:34;;;;;;;2.22;0.95;;;;;;;;;;5052185;28;20486;-74
2021/09/23 08:51:00;;;;;;;2.85;0.93;;;;;;;;;;5053250;28;20467;-73
2021/09/23 08:53:26;;;;;;;2.15;0.80;;;;;;;;;;5053436;28;20036;-73
2021/09/23 08:55:51;;;;;;;2.35;0.85;;;;;;;;;;5048878;28;20020;-74
2021/09/23 08:58:17;;;;;;;2.50;1.05;;;;;;;;;;5051364;28;20116;-75
2021/09/23 09:01:00;;;;;;;2.47;0.90;;;;;;;;;;5050323;28;20094;-76
2021/09/23 09:03:27;;;;;;;2.75;1.00;;;;;;;;;;5050600;28;20072;-78
2021/09/23 09:05:53;;;;;;;2.63;1.02;;;;;;;;;;5050852;28;20044;-75
2021/09/23 09:08:20;;;;;;;1.83;1.00;;;;;;;;;;5050031;28;20094;-76
2021/09/23 09:10:46;;;;;;;2.45;1.10;;;;;;;;;;5050382;28;20047;-75
2021/09/23 09:13:11;;;;;;;2.50;1.00;;;;;;;;;;5050687;28;20040;-75
2021/09/23 09:15:41;;;;;;;2.97;1.10;;;;;;;;;;5050264;28;20369;-75
2021/09/23 09:18:14;;;;;;;4.93;1.00;;;;;;;;;;5049619;28;20104;-76
2021/09/23 09:21:12;;;;;;;2.00;1.00;;;;;;;;;;5050331;28;20025;-78
2021/09/23 09:23:48;;;;;;;5.28;0.90;;;;;;;;;;5043861;28;20052;-76
2021/09/23 09:26:25;;;;;;;1.50;0.90;;;;;;;;;;5050819;28;20112;-77
2021/09/23 09:28:52;;;;;;;2.50;0.90;;;;;;;;;;5050012;28;20036;-76
2021/09/23 09:31:18;;;;;;;5.53;1.25;;;;;;;;;;5049782;28;20158;-76
2021/09/23 09:33:44;;;;;;;2.25;1.52;;;;;;;;;;5050474;28;20128;-78
2021/09/23 09:36:29;;;;;;;2.40;1.17;;;;;;;;;;5050064;28;20025;-76
2021/09/23 09:38:55;;;;;;;;;;;;;;;;;;5044562;28;20382;-76
2021/09/23 09:41:28;;;;;;;1.80;1.23;;;;;;;;;;5049975;28;19909;-78
2021/09/23 09:43:56;;;;;;;1.15;0.90;;;;;;;;;;5048926;28;20045;-77
2021/09/23 09:46:26;;;;;;;2.13;1.02;;;;;;;;;;5049263;28;20029;-81
2021/09/23 09:48:52;;;;;;;1.65;0.98;;;;;;;;;;5048320;28;20506;-76
2021/09/23 09:51:20;;;;;;;1.30;0.90;;;;;;;;;;5050616;28;20048;-77
2021/09/23 09:53:55;;;;;;;2.55;0.80;;;;;;;;;;5053647;28;20044;-74
2021/09/23 09:56:20;;;;;;;;;;;;;;;;;;5053812;28;20032;-75
2021/09/23 09:59:02;;;;;;;1.80;1.10;;;;;;;;;;5052442;28;19919;-74
2021/09/23 10:01:28;;;;;;;1.08;0.80;;;;;;;;;;5052577;28;20029;-74
2021/09/23 10:03:53;;;;;;;1.38;0.68;;;;;;;;;;5053263;28;20021;-74
2021/09/23 10:06:18;;;;;;;1.98;0.80;;;;;;;;;;5052922;28;20029;-74
2021/09/23 10:08:44;;;;;;;4.72;1.30;;;;;;;;;;5052743;28;20024;-75
2021/09/23 10:11:09;;;;;;;3.40;0.73;;;;;;;;;;5052459;28;20384;-75
2021/09/23 10:13:34;;;;;;;2.13;1.00;;;;;;;;;;5052329;28;20068;-74
2021/09/23 10:16:00;;;;;;;1.80;0.80;;;;;;;;;;5051987;28;20027;-77
2021/09/23 10:18:25;;;;;;;1.08;0.73;;;;;;;;;;5053053;28;20520;-74
2021/09/23 10:20:51;;;;;;;1.83;1.20;;;;;;;;;;5052202;28;20473;-74
2021/09/23 10:23:16;;;;;;;3.08;1.40;;;;;;;;;;5051702;28;20355;-74
2021/09/23 10:25:41;;;;;;;2.30;0.80;;;;;;;;;;5052390;28;20112;-76
2021/09/23 10:28:08;;;;;;;1.58;0.80;;;;;;;;;;5052114;28;20044;-79
2021/09/23 10:30:35;;;;;;;1.95;0.63;;;;;;;;;;5052296;28;20098;-76
2021/09/23 10:33:02;;;;;;;1.63;0.80;;;;;;;;;;5051728;28;20057;-76
2021/09/23 10:35:29;;;;;;;2.88;0.50;;;;;;;;;;5052675;28;20033;-77
2021/09/23 10:37:55;;;;;;;1.90;0.50;;;;;;;;;;5052337;28;20100;-76
2021/09/23 10:40:21;;;;;;;0.68;0.40;;;;;;;;;;5051911;28;20136;-78
2021/09/23 10:42:47;;;;;;;1.13;0.38;;;;;;;;;;5051844;28;20037;-77
2021/09/23 10:45:14;;;;;;;0.93;0.60;;;;;;;;;;5051180;28;20017;-77
2021/09/23 10:47:39;;;;;;;1.00;0.47;;;;;;;;;;5048679;28;20041;-79
2021/09/23 10:50:06;;;;;;;0.60;0.60;;;;;;;;;;5050976;28;20504;-77
2021/09/23 10:52:34;;;;;;;0.80;0.52;;;;;;;;;;5052122;28;20052;-76
2021/09/23 10:55:00;;;;;;;2.20;0.57;;;;;;;;;;5051029;28;20155;-76
2021/09/23 10:57:26;;;;;;;2.08;0.80;;;;;;;;;;5052038;28;20127;-76
2021/09/23 10:59:51;;;;;;;0.98;0.60;;;;;;;;;;5052279;28;20104;-76
2021/09/23 11:02:21;;;;;;;0.65;0.50;;;;;;;;;;5047919;28;20512;-76
2021/09/23 11:04:48;;;;;;;0.40;0.40;;;;;;;;;;5051482;28;20055;-76
2021/09/23 11:07:13;;;;;;;0.88;0.55;;;;;;;;;;5052479;28;20013;-76
2021/09/23 11:09:39;;;;;;;2.33;0.70;;;;;;;;;;5052934;28;20494;-76
2021/09/23 11:12:06;;;;;;;1.40;0.57;;;;;;;;;;5050931;28;20045;-75
2021/09/23 11:14:32;;;;;;;3.95;0.47;;;;;;;;;;5051838;28;20477;-76
2021/09/23 11:16:58;;;;;;;0.55;0.50;;;;;;;;;;5052514;28;20028;-77
2021/09/23 11:19:24;;;;;;;1.33;0.40;;;;;;;;;;5052679;28;20037;-76
2021/09/23 11:21:51;;;;;;;0.40;0.30;;;;;;;;;;5052132;28;20025;-76
2021/09/23 11:24:16;;;;;;;2.08;0.40;;;;;;;;;;5051732;28;20108;-75
2021/09/23 11:26:42;;;;;;;0.77;0.25;;;;;;;;;;5052278;28;20113;-75
2021/09/23 11:29:07;;;;;;;0.70;0.40;;;;;;;;;;5052012;28;20104;-77
2021/09/23 11:31:46;;;;;;;0.50;0.40;;;;;;;;;;5051954;28;20087;-78
2021/09/23 11:34:12;;;;;;;0.70;0.40;;;;;;;;;;5052956;28;20060;-76
2021/09/23 11:36:43;;;;;;;0.38;0.30;;;;;;;;;;5052882;28;20067;-75
2021/09/23 11:39:17;;;;;;;0.57;0.30;;;;;;;;;;5052017;28;20028;-76
2021/09/23 11:41:42;;;;;;;1.07;0.50;;;;;;;;;;5052170;28;20052;-76
2021/09/23 11:44:21;;;;;;;0.52;0.30;;;;;;;;;;5051291;28;20338;-76
2021/09/23 11:46:47;;;;;;;0.32;0.25;;;;;;;;;;5051583;28;20048;-76
2021/09/23 11:49:12;;;;;;;0.10;0.10;;;;;;;;;;5051589;28;20465;-79
2021/09/23 11:51:37;;;;;;;0.10;0.10;;;;;;;;;;5052187;28;20057;-77
2021/09/23 11:54:03;;;;;;;0.30;0.20;;;;;;;;;;5051332;28;20025;-77
2021/09/23 11:56:39;;;;;;;0.40;0.20;;;;;;;;;;5051498;28;20495;-75
2021/09/23 11:59:04;;;;;;;0.50;0.20;;;;;;;;;;5050551;28;20039;-76
2021/09/23 12:01:29;;;;;;;0.45;0.20;;;;;;;;;;5051475;28;20025;-76
2021/09/23 12:03:54;;;;;;;1.15;0.22;;;;;;;;;;5051355;28;20464;-77
2021/09/23 12:06:20;;;;;;;0.20;0.20;;;;;;;;;;5051296;28;20029;-76
2021/09/23 12:08:45;;;;;;;0.85;0.30;;;;;;;;;;5051561;28;20033;-76
2021/09/23 12:11:12;;;;;;;0.85;0.52;;;;;;;;;;5051262;28;20029;-75
2021/09/23 12:13:37;;;;;;;0.47;0.30;;;;;;;;;;5050673;28;20032;-76
2021/09/23 12:16:05;;;;;;;0.20;0.15;;;;;;;;;;5050054;28;20610;-76
2021/09/23 12:18:30;;;;;;;0.38;0.20;;;;;;;;;;5051601;28;20021;-79
2021/09/23 12:20:57;;;;;;;0.95;0.30;;;;;;;;;;5051790;28;20040;-76
2021/09/23 12:23:22;;;;;;;0.10;0.10;;;;;;;;;;5050868;28;20052;-76
2021/09/23 12:26:06;;;;;;;0.80;0.20;;;;;;;;;;5051056;28;20029;-76
2021/09/23 12:28:32;;;;;;;0.85;0.30;;;;;;;;;;5050987;28;20540;-76
2021/09/23 12:31:01;;;;;;;0.45;0.22;;;;;;;;;;5051169;28;20048;-76
2021/09/23 12:33:26;;;;;;;0.20;0.20;;;;;;;;;;5050821;28;20064;-76
2021/09/23 12:36:13;;;;;;;1.77;0.30;;;;;;;;;;5050891;28;20032;-76
2021/09/23 12:38:39;;;;;;;0.38;0.17;;;;;;;;;;5049206;28;20116;-78
2021/09/23 12:41:25;;;;;;;0.77;0.20;;;;;;;;;;5050976;28;20551;-76
2021/09/23 12:43:50;;;;;;;;;;;;;;;;;;5048367;28;20502;-76
2021/09/23 12:46:15;;;;;;;0.20;0.20;;;;;;;;;;5050538;28;19909;-76
2021/09/23 12:48:42;;;;;;;1.13;0.32;;;;;;;;;;5050578;28;20431;-78
2021/09/23 12:51:07;;;;;;;0.10;0.10;;;;;;;;;;5050882;28;20025;-76
2021/09/23 12:53:34;;;;;;;1.58;0.68;;;;;;;;;;5050354;28;20044;-75
2021/09/23 12:56:00;;;;;;;0.50;0.10;;;;;;;;;;5050503;28;20470;-76
2021/09/23 12:58:25;;;;;;;1.05;0.35;;;;;;;;;;5050146;28;20017;-75
2021/09/23 13:00:50;;;;;;;0.60;0.20;;;;;;;;;;5050786;28;20032;-76
2021/09/23 13:03:17;;;;;;;0.20;0.20;;;;;;;;;;5049133;28;20039;-76
2021/09/23 13:05:43;;;;;;;0.63;0.38;;;;;;;;;;5050484;28;20029;-76
2021/09/23 13:08:10;;;;;;;0.65;0.38;;;;;;;;;;5049914;28;20029;-76
2021/09/23 13:10:36;;;;;;;0.20;0.20;;;;;;;;;;5050220;28;20112;-77
2021/09/23 13:13:03;;;;;;;2.85;0.60;;;;;;;;;;5050275;28;20116;-79
2021/09/23 13:15:31;;;;;;;0.88;0.30;;;;;;;;;;5049935;28;20082;-76
2021/09/23 13:17:58;;;;;;;0.60;0.30;;;;;;;;;;5050144;28;20032;-76
2021/09/23 13:20:23;;;;;;;1.08;0.40;;;;;;;;;;5050184;28;20025;-76
2021/09/23 13:22:48;;;;;;;0.50;0.30;;;;;;;;;;5050444;28;20107;-78
2021/09/23 13:25:14;;;;;;;0.45;0.32;;;;;;;;;;5050700;28;20033;-76
2021/09/23 13:27:41;;;;;;;0.93;0.38;;;;;;;;;;5052502;28;20105;-77
2021/09/23 13:30:09;;;;;;;1.60;0.30;;;;;;;;;;5055391;28;20025;-76
2021/09/23 13:32:34;;;;;;;1.08;0.40;;;;;;;;;;5053869;28;20053;-76
2021/09/23 13:34:59;;;;;;;2.60;0.47;;;;;;;;;;5054948;28;20024;-76
2021/09/23 13:37:25;;;;;;;0.90;0.40;;;;;;;;;;5052831;28;20469;-76
2021/09/23 13:39:50;;;;;;;1.17;0.50;;;;;;;;;;5055087;28;20528;-77
2021/09/23 13:42:15;;;;;;;1.95;0.70;;;;;;;;;;5054915;28;20013;-76
2021/09/23 13:44:40;;;;;;;0.40;0.40;;;;;;;;;;5054959;28;20029;-79
2021/09/23 13:47:06;;;;;;;1.17;0.50;;;;;;;;;;5051088;28;20469;-77
2021/09/23 13:49:31;;;;;;;1.92;0.60;;;;;;;;;;5054131;28;20052;-77
2021/09/23 13:51:57;;;;;;;0.60;0.50;;;;;;;;;;5053627;28;20048;-75
2021/09/23 13:54:22;;;;;;;1.20;0.70;;;;;;;;;;5053417;28;20175;-77
2021/09/23 13:56:47;;;;;;;1.98;1.00;;;;;;;;;;5053746;28;20028;-77
2021/09/23 13:59:13;;;;;;;0.60;0.60;;;;;;;;;;5053948;28;20025;-76
2021/09/23 14:01:38;;;;;;;2.38;0.70;;;;;;;;;;5053794;28;20500;-77
2021/09/23 14:04:03;;;;;;;1.00;0.50;;;;;;;;;;5053664;28;20084;-76
2021/09/23 14:06:29;;;;;;;1.10;0.65;;;;;;;;;;5053818;28;20049;-76
2021/09/23 14:08:54;;;;;;;1.05;0.60;;;;;;;;;;5052996;28;20123;-76
2021/09/23 14:11:19;;;;;;;0.80;0.50;;;;;;;;;;5054121;28;20028;-77
2021/09/23 14:13:46;;;;;;;1.60;0.45;;;;;;;;;;5053361;28;20040;-75
2021/09/23 14:16:11;;;;;;;0.73;0.60;;;;;;;;;;5053835;28;20037;-78
2021/09/23 14:18:36;;;;;;;1.38;0.70;;;;;;;;;;5053463;28;20029;-76
2021/09/23 14:21:02;;;;;;;0.98;0.50;;;;;;;;;;5053607;28;20064;-75
2021/09/23 14:23:27;;;;;;;0.73;0.50;;;;;;;;;;5053355;28;20033;-76
2021/09/23 14:25:53;;;;;;;2.63;0.60;;;;;;;;;;5053528;28;20071;-76
2021/09/23 14:28:18;;;;;;;1.17;0.57;;;;;;;;;;5053019;28;20621;-75
2021/09/23 14:30:43;;;;;;;0.98;0.50;;;;;;;;;;5053032;28;20025;-76